Time;durP1;ratioP1;P1;durP2;ratioP2;P2;SDS_P1;SDS_P2;PMS_P1;PMS_P2;Temp;Humidity;BMP_temperature;BMP_pressure;BME280_temperature;BME280_humidity;BME280_pressure;Samples;Min_cycle;Max_cycle;Signal;HPM_P1;HPM_P2
2022/05/10 00:01:39;;;;;;;10.80;9.80;;;;;;;13.42;100.00;98720.78;5099311;28;20213;-69
2022/05/10 00:04:07;;;;;;;11.77;10.57;;;;;;;13.45;100.00;98731.19;5099243;28;20225;-68
2022/05/10 00:06:39;;;;;;;11.60;10.60;;;;;;;13.46;100.00;98722.25;5104736;28;20238;-68
2022/05/10 00:09:06;;;;;;;11.63;10.63;;;;;;;13.44;100.00;98721.53;5106311;28;20241;-68
2022/05/10 00:11:33;;;;;;;11.93;10.73;;;;;;;13.43;100.00;98718.00;5108502;28;20241;-68
2022/05/10 00:13:59;;;;;;;11.70;10.60;;;;;;;13.40;100.00;98722.69;5107792;28;20668;-68
2022/05/10 00:16:28;;;;;;;11.63;10.37;;;;;;;13.38;100.00;98719.31;5104675;28;20672;-68
2022/05/10 00:18:54;;;;;;;11.33;10.27;;;;;;;13.41;100.00;98717.28;5107324;28;20213;-68
2022/05/10 00:21:25;;;;;;;11.23;10.13;;;;;;;13.41;100.00;98716.41;5108244;28;20305;-67
2022/05/10 00:23:51;;;;;;;12.30;11.10;;;;;;;13.39;100.00;98721.00;5107335;28;20607;-68
2022/05/10 00:26:18;;;;;;;11.87;10.77;;;;;;;13.39;100.00;98723.66;5106554;28;20238;-68
2022/05/10 00:28:45;;;;;;;10.77;9.77;;;;;;;13.34;100.00;98712.50;5102684;28;20206;-67
2022/05/10 00:31:13;;;;;;;12.00;10.67;;;;;;;13.27;100.00;98722.69;5108278;28;20566;-68
2022/05/10 00:33:41;;;;;;;11.73;10.63;;;;;;;13.22;100.00;98716.91;5107664;28;20209;-69
2022/05/10 00:36:11;;;;;;;10.93;9.93;;;;;;;13.14;100.00;98721.88;5102756;28;20214;-68
2022/05/10 00:38:40;;;;;;;12.73;11.53;;;;;;;13.08;100.00;98718.81;5107778;28;20217;-67
2022/05/10 00:41:12;;;;;;;12.90;11.67;;;;;;;13.02;100.00;98713.94;5107930;28;20264;-68
2022/05/10 00:43:43;;;;;;;11.53;10.53;;;;;;;12.97;100.00;98719.53;5106259;28;20221;-68
2022/05/10 00:46:13;;;;;;;12.17;11.07;;;;;;;12.95;100.00;98716.16;5108429;28;20240;-68
2022/05/10 00:48:48;;;;;;;11.33;10.33;;;;;;;12.97;100.00;98714.22;5107871;28;20214;-69
2022/05/10 00:51:21;;;;;;;11.73;10.63;;;;;;;12.93;100.00;98711.88;5108030;28;20216;-68
2022/05/10 00:53:57;;;;;;;12.13;11.00;;;;;;;12.86;100.00;98710.59;5104267;28;20241;-68
2022/05/10 00:56:33;;;;;;;12.63;11.43;;;;;;;12.88;100.00;98714.00;5098683;28;20675;-68
2022/05/10 00:59:04;;;;;;;12.47;11.13;;;;;;;12.91;100.00;98705.84;5104158;28;20217;-68
2022/05/10 01:01:33;;;;;;;11.37;10.17;;;;;;;12.89;100.00;98699.78;5108421;28;20217;-68
2022/05/10 01:04:08;;;;;;;11.80;10.67;;;;;;;12.87;100.00;98704.34;5108318;28;20218;-68
2022/05/10 01:06:44;;;;;;;11.57;10.47;;;;;;;12.85;100.00;98704.44;5102395;28;20240;-68
2022/05/10 01:09:15;;;;;;;11.80;10.73;;;;;;;12.82;100.00;98696.72;5109802;28;20217;-68
2022/05/10 01:11:46;;;;;;;13.53;12.13;;;;;;;12.80;100.00;98701.28;5109486;28;20220;-67
2022/05/10 01:14:17;;;;;;;16.10;14.47;;;;;;;12.79;100.00;98696.94;5098467;28;20269;-68
2022/05/10 01:16:43;;;;;;;15.63;13.97;;;;;;;12.76;100.00;98693.63;5098378;28;20214;-68
2022/05/10 01:19:13;;;;;;;18.13;16.23;;;;;;;12.78;100.00;98686.41;5100996;28;20218;-68
2022/05/10 01:21:51;;;;;;;17.53;15.73;;;;;;;12.74;100.00;98690.22;5100466;28;20225;-68
2022/05/10 01:24:33;;;;;;;18.13;16.20;;;;;;;12.70;100.00;98694.91;5098388;28;20219;-68
2022/05/10 01:27:21;;;;;;;18.13;16.10;;;;;;;12.66;100.00;98684.63;5102408;28;20226;-68
2022/05/10 01:29:53;;;;;;;18.77;16.87;;;;;;;12.65;100.00;98688.22;5096656;28;20247;-68
2022/05/10 01:35:13;;;;;;;19.00;17.00;;;;;;;12.52;100.00;98685.53;5103671;28;20237;-67
2022/05/10 01:37:44;;;;;;;18.70;16.50;;;;;;;12.47;100.00;98670.91;5098286;28;20221;-67
2022/05/10 01:40:19;;;;;;;18.30;16.37;;;;;;;12.44;100.00;98671.97;5098128;28;20218;-67
2022/05/10 01:42:51;;;;;;;18.57;16.67;;;;;;;12.44;100.00;98666.69;5100374;28;20245;-67
2022/05/10 01:45:30;;;;;;;19.57;17.50;;;;;;;12.43;100.00;98669.41;5099864;28;20242;-68
2022/05/10 01:48:00;;;;;;;18.43;16.50;;;;;;;12.40;100.00;98665.16;5097884;28;20213;-68
2022/05/10 01:50:32;;;;;;;18.07;16.17;;;;;;;12.39;100.00;98665.28;5101556;28;20220;-67
2022/05/10 01:53:05;;;;;;;19.07;17.13;;;;;;;12.37;100.00;98659.22;5104819;28;20209;-67
2022/05/10 01:55:33;;;;;;;19.57;17.53;;;;;;;12.37;100.00;98653.94;5100753;28;20222;-67
2022/05/10 01:58:06;;;;;;;18.93;16.63;;;;;;;12.37;100.00;98659.22;5101503;28;20210;-67
2022/05/10 02:00:36;;;;;;;19.13;17.00;;;;;;;12.34;100.00;98659.47;5104932;28;20217;-67
2022/05/10 02:03:12;;;;;;;19.00;16.97;;;;;;;12.33;100.00;98663.03;5109390;28;20225;-67
2022/05/10 02:05:46;;;;;;;19.43;16.57;;;;;;;12.30;100.00;98657.97;5110601;28;20579;-68
2022/05/10 02:08:19;;;;;;;18.53;16.63;;;;;;;12.26;100.00;98661.75;5109297;28;20217;-67
2022/05/10 02:10:51;;;;;;;17.23;14.90;;;;;;;12.24;100.00;98658.38;5108060;28;20223;-67
2022/05/10 02:13:25;;;;;;;18.73;16.73;;;;;;;12.25;100.00;98655.63;5110794;28;20224;-68
2022/05/10 02:15:56;;;;;;;17.80;16.00;;;;;;;12.23;100.00;98662.81;5110442;28;20225;-67
2022/05/10 02:18:29;;;;;;;18.13;16.33;;;;;;;12.23;100.00;98656.69;5106820;28;20220;-68
2022/05/10 02:21:00;;;;;;;19.13;16.53;;;;;;;12.21;100.00;98656.78;5108678;28;20217;-69
2022/05/10 02:23:31;;;;;;;17.83;15.40;;;;;;;12.20;100.00;98656.88;5110626;28;20217;-67
2022/05/10 02:26:02;;;;;;;17.77;16.03;;;;;;;12.20;100.00;98646.28;5108172;28;20234;-68
2022/05/10 02:28:37;;;;;;;17.27;15.47;;;;;;;12.16;100.00;98655.41;5107791;28;20245;-67
2022/05/10 02:31:10;;;;;;;17.10;15.30;;;;;;;12.17;100.00;98657.09;5110448;28;20220;-67
2022/05/10 02:33:37;;;;;;;18.30;16.17;;;;;;;12.17;100.00;98651.78;5110151;28;20221;-67
2022/05/10 02:36:04;;;;;;;17.47;15.50;;;;;;;12.14;100.00;98652.84;5106586;28;20270;-67
2022/05/10 02:38:33;;;;;;;17.07;15.30;;;;;;;12.13;100.00;98656.44;5109176;28;20221;-69
2022/05/10 02:41:01;;;;;;;16.57;14.87;;;;;;;12.13;100.00;98653.81;5110110;28;20619;-67
2022/05/10 02:43:30;;;;;;;17.47;15.67;;;;;;;12.13;100.00;98655.59;5109440;28;20675;-67
2022/05/10 02:45:57;;;;;;;18.57;16.57;;;;;;;12.14;100.00;98641.38;5104541;28;20242;-67
2022/05/10 02:48:28;;;;;;;18.73;16.83;;;;;;;12.11;100.00;98652.19;5109217;28;20224;-67
2022/05/10 02:50:55;;;;;;;18.83;16.50;;;;;;;12.11;100.00;98649.56;5110054;28;20210;-67
2022/05/10 02:53:21;;;;;;;18.63;16.63;;;;;;;12.08;100.00;98649.75;5108934;28;20596;-67
2022/05/10 02:55:52;;;;;;;19.47;17.23;;;;;;;12.01;100.00;98645.81;5106077;28;20590;-67
2022/05/10 02:58:27;;;;;;;18.87;16.67;;;;;;;11.93;100.00;98648.13;5100572;28;20218;-67
2022/05/10 03:01:01;;;;;;;18.60;16.70;;;;;;;11.78;100.00;98647.34;5100545;28;20232;-67
2022/05/10 03:03:31;;;;;;;19.23;17.33;;;;;;;11.75;100.00;98644.03;5103452;28;20223;-67
2022/05/10 03:05:57;;;;;;;18.47;16.67;;;;;;;11.70;100.00;98640.84;5101744;28;20232;-67
2022/05/10 03:08:24;;;;;;;17.57;15.70;;;;;;;11.67;100.00;98641.06;5100219;28;20236;-68
2022/05/10 03:10:50;;;;;;;17.67;15.77;;;;;;;11.67;100.00;98646.34;5099967;28;20221;-68
2022/05/10 03:13:17;;;;;;;17.77;15.97;;;;;;;11.66;100.00;98641.97;5101588;28;20294;-68
2022/05/10 03:15:43;;;;;;;17.93;16.03;;;;;;;11.65;100.00;98638.50;5103549;28;20213;-68
2022/05/10 03:18:10;;;;;;;18.03;15.93;;;;;;;11.60;100.00;98637.09;5109095;28;20844;-68
2022/05/10 03:20:37;;;;;;;17.27;15.50;;;;;;;11.53;100.00;98643.69;5099713;28;20212;-67
2022/05/10 03:23:04;;;;;;;17.13;15.43;;;;;;;11.47;100.00;98639.66;5102721;28;20622;-67
2022/05/10 03:25:32;;;;;;;16.57;14.87;;;;;;;11.41;100.00;98632.13;5102301;28;20219;-67
2022/05/10 03:27:59;;;;;;;16.07;14.53;;;;;;;11.39;100.00;98641.09;5104875;28;20232;-68
2022/05/10 03:30:26;;;;;;;17.27;15.47;;;;;;;11.40;100.00;98637.50;5105130;28;20246;-67
2022/05/10 03:32:53;;;;;;;17.07;15.27;;;;;;;11.40;100.00;98637.50;5101848;28;20214;-68
2022/05/10 03:35:20;;;;;;;18.53;15.83;;;;;;;11.41;100.00;98633.91;5102423;28;20574;-67
2022/05/10 03:37:48;;;;;;;18.30;16.40;;;;;;;11.41;100.00;98644.50;5098778;28;20225;-67
2022/05/10 03:40:14;;;;;;;18.70;16.70;;;;;;;11.35;100.00;98634.31;5099055;28;20217;-67
2022/05/10 03:42:46;;;;;;;19.00;16.63;;;;;;;11.27;100.00;98632.16;5101800;28;20326;-67
2022/05/10 03:45:13;;;;;;;19.03;16.87;;;;;;;11.23;100.00;98637.72;5101578;28;20214;-67
2022/05/10 03:47:40;;;;;;;18.13;15.73;;;;;;;11.22;100.00;98633.41;5099423;28;20244;-67
2022/05/10 03:50:08;;;;;;;18.60;16.60;;;;;;;11.23;100.00;98632.44;5099148;28;20259;-67
2022/05/10 03:52:35;;;;;;;18.33;16.33;;;;;;;11.23;100.00;98629.78;5101939;28;21219;-68
2022/05/10 03:55:04;;;;;;;18.07;16.17;;;;;;;11.24;100.00;98632.34;5101464;28;20225;-67
2022/05/10 03:57:30;;;;;;;18.63;15.77;;;;;;;11.26;100.00;98632.25;5099295;28;20223;-67
2022/05/10 03:59:57;;;;;;;18.10;16.20;;;;;;;11.30;100.00;98633.75;5099105;28;20212;-69
2022/05/10 04:02:23;;;;;;;19.47;17.47;;;;;;;11.30;100.00;98625.81;5101714;28;20239;-67
2022/05/10 04:04:50;;;;;;;19.27;17.10;;;;;;;11.35;100.00;98640.47;5099931;28;20607;-67
2022/05/10 04:07:16;;;;;;;19.30;17.23;;;;;;;11.43;100.00;98632.03;5098997;28;20258;-67
2022/05/10 04:09:43;;;;;;;19.03;17.00;;;;;;;11.55;100.00;98639.19;5099021;28;20212;-67
2022/05/10 04:12:11;;;;;;;19.83;17.00;;;;;;;11.65;100.00;98632.34;5100618;28;20222;-69
2022/05/10 04:14:37;;;;;;;18.77;16.87;;;;;;;11.71;100.00;98634.59;5102014;28;20209;-68
2022/05/10 04:17:05;;;;;;;19.27;17.37;;;;;;;11.76;100.00;98633.38;5099055;28;20224;-67
2022/05/10 04:19:31;;;;;;;19.07;17.07;;;;;;;11.83;100.00;98632.00;5099109;28;20220;-67
2022/05/10 04:21:58;;;;;;;19.20;17.10;;;;;;;11.90;100.00;98632.41;5100510;28;20216;-67
2022/05/10 04:24:25;;;;;;;19.37;16.93;;;;;;;11.95;100.00;98632.97;5102024;28;20678;-67
2022/05/10 04:26:51;;;;;;;18.07;16.17;;;;;;;11.99;100.00;98632.66;5100782;28;20236;-67
2022/05/10 04:29:19;;;;;;;18.87;16.87;;;;;;;12.05;100.00;98628.75;5105430;28;20211;-67
2022/05/10 04:31:46;;;;;;;18.33;16.53;;;;;;;12.15;100.00;98633.34;5107047;28;20221;-67
2022/05/10 04:34:12;;;;;;;18.57;15.93;;;;;;;12.24;100.00;98631.88;5102541;28;20580;-67
2022/05/10 04:36:39;;;;;;;18.27;16.37;;;;;;;12.31;100.00;98638.44;5098669;28;20210;-66
2022/05/10 04:39:06;;;;;;;17.90;15.97;;;;;;;12.39;100.00;98638.75;5098606;28;20218;-66
2022/05/10 04:41:36;;;;;;;18.30;15.77;;;;;;;12.48;100.00;98635.50;5099526;28;20245;-67
2022/05/10 04:44:04;;;;;;;16.90;15.13;;;;;;;12.55;100.00;98634.13;5102080;28;20249;-68
2022/05/10 04:46:35;;;;;;;17.73;15.83;;;;;;;12.67;100.00;98630.63;5098310;28;20718;-68
2022/05/10 04:49:02;;;;;;;18.33;16.43;;;;;;;12.78;100.00;98634.19;5098325;28;20705;-68
2022/05/10 04:51:29;;;;;;;18.10;16.17;;;;;;;12.93;100.00;98637.59;5100535;28;20222;-68
2022/05/10 04:53:56;;;;;;;18.00;16.10;;;;;;;13.05;100.00;98631.44;5101891;28;20225;-67
2022/05/10 04:56:23;;;;;;;18.13;15.73;;;;;;;13.21;100.00;98640.00;5097973;28;20209;-67
2022/05/10 04:58:51;;;;;;;19.47;17.00;;;;;;;13.33;100.00;98641.78;5097603;28;20237;-67
2022/05/10 05:01:18;;;;;;;17.83;16.00;;;;;;;13.47;100.00;98637.19;5099717;28;20229;-67
2022/05/10 05:03:48;;;;;;;17.70;15.90;;;;;;;13.61;100.00;98636.16;5101788;28;20214;-67
2022/05/10 05:06:14;;;;;;;17.07;15.37;;;;;;;13.71;100.00;98642.50;5098371;28;20241;-68
2022/05/10 05:08:41;;;;;;;19.57;15.80;;;;;;;13.82;100.00;98632.75;5098493;28;20221;-67
2022/05/10 05:11:07;;;;;;;18.47;16.40;;;;;;;13.97;100.00;98646.72;5099799;28;20215;-67
2022/05/10 05:13:35;;;;;;;17.77;15.87;;;;;;;14.09;100.00;98637.81;5102043;28;20214;-67
2022/05/10 05:16:01;;;;;;;17.73;15.27;;;;;;;14.25;100.00;98643.72;5098292;28;20214;-67
2022/05/10 05:18:28;;;;;;;15.97;14.43;;;;;;;14.42;100.00;98652.09;5098416;28;20220;-67
2022/05/10 05:20:55;;;;;;;16.90;15.13;;;;;;;14.62;100.00;98651.44;5099464;28;20211;-67
2022/05/10 05:23:23;;;;;;;15.67;14.10;;;;;;;14.86;100.00;98652.16;5100466;28;20218;-68
2022/05/10 05:25:52;;;;;;;15.83;14.17;;;;;;;15.25;100.00;98656.16;5101800;28;20545;-67
2022/05/10 05:28:19;;;;;;;14.27;12.93;;;;;;;15.95;97.46;98655.69;5109677;28;20309;-67
2022/05/10 05:30:46;;;;;;;14.43;13.00;;;;;;;16.74;92.71;98653.38;5105833;28;20225;-67
2022/05/10 05:33:14;;;;;;;13.47;12.17;;;;;;;17.49;88.04;98655.56;5105665;28;20213;-67
2022/05/10 05:35:40;;;;;;;13.93;12.53;;;;;;;18.14;83.66;98652.31;5102131;28;20226;-67
2022/05/10 05:38:09;;;;;;;13.33;12.03;;;;;;;18.67;79.74;98649.06;5101674;28;20214;-67
2022/05/10 05:40:38;;;;;;;12.90;11.60;;;;;;;19.15;76.43;98646.25;5103158;28;20207;-67
2022/05/10 05:43:05;;;;;;;12.37;11.27;;;;;;;19.57;73.42;98656.38;5105018;28;20234;-66
2022/05/10 05:45:32;;;;;;;13.17;11.87;;;;;;;19.89;71.72;98654.09;5101583;28;20697;-67
2022/05/10 05:47:58;;;;;;;13.27;12.00;;;;;;;20.14;69.43;98656.06;5108080;28;20246;-67
2022/05/10 05:50:26;;;;;;;11.93;10.73;;;;;;;20.36;68.89;98658.25;5100920;28;20211;-67
2022/05/10 05:52:53;;;;;;;11.43;10.40;;;;;;;20.64;67.80;98656.31;5105013;28;20214;-67
2022/05/10 05:55:22;;;;;;;11.80;10.70;;;;;;;20.88;66.83;98654.69;5101279;28;20215;-66
2022/05/10 05:57:48;;;;;;;12.07;10.97;;;;;;;21.01;66.29;98665.88;5101453;28;20206;-68
2022/05/10 06:00:18;;;;;;;12.20;11.10;;;;;;;20.85;66.40;98665.72;5102302;28;20210;-67
2022/05/10 06:02:45;;;;;;;11.90;10.80;;;;;;;20.68;67.61;98663.94;5104472;28;20698;-68
2022/05/10 06:05:11;;;;;;;12.10;10.90;;;;;;;20.55;68.19;98663.47;5101420;28;20222;-68
2022/05/10 06:07:38;;;;;;;12.23;11.07;;;;;;;20.38;68.13;98667.03;5101016;28;20727;-67
2022/05/10 06:10:06;;;;;;;11.67;10.57;;;;;;;20.36;67.95;98663.63;5102572;28;20214;-69
2022/05/10 06:12:34;;;;;;;11.53;10.43;;;;;;;20.46;68.21;98661.72;5104636;28;20220;-68
2022/05/10 06:15:02;;;;;;;11.30;10.30;;;;;;;20.62;68.27;98664.56;5100825;28;20602;-67
2022/05/10 06:17:29;;;;;;;11.43;10.30;;;;;;;20.90;67.79;98665.28;5100029;28;20222;-67
2022/05/10 06:19:55;;;;;;;11.40;10.40;;;;;;;21.20;66.42;98662.94;5102048;28;20671;-67
2022/05/10 06:22:22;;;;;;;10.83;9.87;;;;;;;21.53;64.83;98661.28;5104717;28;20214;-67
2022/05/10 06:24:48;;;;;;;11.47;10.47;;;;;;;21.74;63.05;98659.88;5100713;28;20688;-67
2022/05/10 06:27:16;;;;;;;12.13;11.03;;;;;;;21.67;62.17;98661.53;5106586;28;20605;-67
2022/05/10 06:29:45;;;;;;;11.50;10.40;;;;;;;21.64;63.19;98659.13;5104368;28;20250;-67
2022/05/10 06:32:19;;;;;;;11.30;10.20;;;;;;;21.85;63.16;98662.28;5104728;28;20210;-67
2022/05/10 06:34:45;;;;;;;12.03;11.03;;;;;;;22.22;60.85;98661.84;5100375;28;20217;-68
2022/05/10 06:39:56;;;;;;;10.87;9.83;;;;;;;22.45;60.31;98658.41;5106518;28;20332;-68
2022/05/10 06:42:23;;;;;;;10.93;9.77;;;;;;;22.22;61.59;98660.00;5107274;28;20297;-68
2022/05/10 06:44:51;;;;;;;10.37;9.47;;;;;;;21.69;63.77;98656.84;5109992;28;20210;-68
2022/05/10 06:47:17;;;;;;;12.23;10.67;;;;;;;21.00;67.22;98658.81;5109990;28;20260;-68
2022/05/10 06:49:44;;;;;;;11.50;10.33;;;;;;;20.53;70.27;98660.09;5104001;28;20214;-68
2022/05/10 06:52:11;;;;;;;11.43;10.37;;;;;;;20.25;72.20;98660.34;5101528;28;20578;-68
2022/05/10 06:54:37;;;;;;;11.80;10.80;;;;;;;20.02;71.92;98659.94;5100410;28;20217;-68
2022/05/10 06:57:04;;;;;;;11.67;10.60;;;;;;;19.89;73.27;98659.44;5099993;28;20215;-68
2022/05/10 06:59:30;;;;;;;11.30;10.30;;;;;;;19.84;73.33;98661.75;5103383;28;20206;-67
2022/05/10 07:01:58;;;;;;;11.87;10.77;;;;;;;19.82;73.77;98658.34;5107028;28;20221;-67
2022/05/10 07:04:25;;;;;;;11.57;10.37;;;;;;;19.77;73.93;98659.81;5100015;28;20222;-67
2022/05/10 07:06:51;;;;;;;11.70;10.47;;;;;;;19.78;73.12;98656.13;5099738;28;20729;-67
2022/05/10 07:09:18;;;;;;;11.50;10.40;;;;;;;19.83;74.72;98657.38;5101307;28;20218;-67
2022/05/10 07:11:46;;;;;;;11.20;10.20;;;;;;;19.88;75.37;98657.75;5102243;28;20305;-67
2022/05/10 07:14:12;;;;;;;11.57;10.37;;;;;;;19.96;75.67;98654.31;5099990;28;20211;-66
2022/05/10 07:16:39;;;;;;;10.80;9.80;;;;;;;20.04;75.82;98655.25;5099552;28;20218;-67
2022/05/10 07:19:06;;;;;;;11.80;10.60;;;;;;;20.09;75.68;98650.28;5102129;28;20215;-65
2022/05/10 07:21:33;;;;;;;11.37;10.27;;;;;;;20.15;74.52;98649.69;5099644;28;20661;-64
2022/05/10 07:24:01;;;;;;;11.37;10.37;;;;;;;20.22;74.96;98645.38;5097629;28;20218;-67
2022/05/10 07:26:27;;;;;;;10.10;9.10;;;;;;;20.27;75.18;98642.22;5101599;28;20714;-65
2022/05/10 07:28:54;;;;;;;9.97;9.00;;;;;;;20.31;74.70;98644.44;5108281;28;20720;-65
2022/05/10 07:31:20;;;;;;;10.47;9.47;;;;;;;20.42;74.30;98646.91;5101702;28;20218;-66
2022/05/10 07:33:47;;;;;;;10.33;9.33;;;;;;;20.48;72.54;98648.13;5096285;28;20704;-66
2022/05/10 07:36:33;;;;;;;10.03;9.10;;;;;;;20.56;71.10;98654.44;5102934;28;20222;-65
2022/05/10 07:39:00;;;;;;;10.07;9.17;;;;;;;20.63;71.44;98650.13;5100322;28;20624;-65
2022/05/10 07:41:27;;;;;;;10.37;9.47;;;;;;;20.72;72.00;98649.16;5102443;28;20698;-66
2022/05/10 07:43:54;;;;;;;9.87;8.90;;;;;;;20.81;70.63;98653.63;5101894;28;20218;-66
2022/05/10 07:46:21;;;;;;;9.77;8.87;;;;;;;20.95;72.05;98660.25;5102801;28;20675;-66
2022/05/10 07:48:47;;;;;;;9.13;8.33;;;;;;;20.98;70.26;98647.34;5106615;28;20627;-66
2022/05/10 07:51:15;;;;;;;9.03;8.23;;;;;;;21.08;70.24;98642.72;5103218;28;20214;-67
2022/05/10 07:53:42;;;;;;;9.27;8.37;;;;;;;21.22;71.48;98646.69;5102411;28;20211;-65
2022/05/10 07:56:09;;;;;;;9.10;8.30;;;;;;;21.34;68.20;98640.84;5101974;28;20256;-66
2022/05/10 07:58:36;;;;;;;8.53;7.73;;;;;;;21.43;67.77;98639.88;5105222;28;20213;-67
2022/05/10 08:01:02;;;;;;;9.70;8.30;;;;;;;21.56;66.41;98640.28;5103181;28;20218;-69
2022/05/10 08:03:29;;;;;;;8.43;7.63;;;;;;;21.65;65.27;98650.03;5107438;28;20241;-70
2022/05/10 08:05:56;;;;;;;8.57;7.77;;;;;;;21.74;65.63;98638.34;5108701;28;20672;-71
2022/05/10 08:08:25;;;;;;;8.90;8.10;;;;;;;21.79;65.89;98638.72;5110235;28;20240;-71
2022/05/10 08:10:53;;;;;;;8.43;7.73;;;;;;;21.78;66.35;98637.03;5109640;28;20217;-71
2022/05/10 08:13:22;;;;;;;8.53;7.73;;;;;;;21.79;65.92;98640.56;5107328;28;20693;-72
2022/05/10 08:15:51;;;;;;;8.80;7.90;;;;;;;21.78;64.26;98631.66;5109858;28;20218;-72
2022/05/10 08:18:18;;;;;;;8.53;7.73;;;;;;;21.83;67.23;98634.66;5110377;28;20565;-72
2022/05/10 08:20:46;;;;;;;8.77;7.97;;;;;;;21.80;64.81;98637.69;5109224;28;20217;-71
2022/05/10 08:23:16;;;;;;;9.40;8.17;;;;;;;21.96;65.33;98627.00;5107335;28;20206;-72
2022/05/10 08:25:44;;;;;;;8.77;7.90;;;;;;;22.02;63.69;98634.41;5105089;28;20202;-73
2022/05/10 08:28:13;;;;;;;8.80;8.00;;;;;;;22.01;65.10;98635.38;5099155;28;20234;-71
2022/05/10 08:30:40;;;;;;;8.47;7.63;;;;;;;22.08;65.05;98636.41;5107419;28;20623;-71
2022/05/10 08:33:10;;;;;;;8.17;7.47;;;;;;;22.16;64.41;98632.88;5107507;28;20721;-72
2022/05/10 08:35:36;;;;;;;8.60;7.70;;;;;;;22.30;64.65;98633.09;5104456;28;20294;-70
2022/05/10 08:38:03;;;;;;;9.27;7.73;;;;;;;22.40;64.15;98628.38;5107941;28;20821;-74
2022/05/10 08:40:31;;;;;;;9.33;8.40;;;;;;;22.43;61.57;98629.94;5107672;28;20210;-72
2022/05/10 08:43:04;;;;;;;8.83;7.93;;;;;;;22.50;62.36;98629.06;5097330;28;20600;-72
2022/05/10 08:45:33;;;;;;;8.57;7.77;;;;;;;22.59;63.26;98622.69;5105862;28;20577;-71
2022/05/10 08:48:00;;;;;;;7.70;7.10;;;;;;;22.72;62.50;98625.72;5107613;28;20249;-72
2022/05/10 08:50:26;;;;;;;9.67;7.80;;;;;;;22.86;63.66;98627.69;5106919;28;20218;-71
2022/05/10 08:52:53;;;;;;;7.97;7.17;;;;;;;22.94;61.49;98619.63;5095535;28;20233;-70
2022/05/10 08:55:31;;;;;;;8.93;7.30;;;;;;;23.06;60.87;98617.41;5097538;28;20213;-70
2022/05/10 08:58:09;;;;;;;7.53;6.83;;;;;;;23.05;56.90;98623.81;5096928;28;20214;-71
2022/05/10 09:00:41;;;;;;;7.87;7.17;;;;;;;23.23;60.12;98627.97;5103517;28;20229;-72
2022/05/10 09:03:30;;;;;;;8.07;7.10;;;;;;;23.33;58.27;98625.94;5110636;28;20210;-73
2022/05/10 09:06:02;;;;;;;8.17;7.03;;;;;;;23.43;56.72;98621.19;5113253;28;20210;-72
2022/05/10 09:08:37;;;;;;;8.33;7.53;;;;;;;23.59;58.85;98621.09;5110576;28;20600;-73
2022/05/10 09:11:06;;;;;;;8.60;7.80;;;;;;;23.76;60.23;98617.31;5110839;28;20706;-72
2022/05/10 09:13:35;;;;;;;10.07;7.70;;;;;;;23.90;59.02;98629.25;5113015;28;20581;-72
2022/05/10 09:16:04;;;;;;;8.93;7.33;;;;;;;23.95;55.85;98616.91;5113188;28;20210;-72
2022/05/10 09:18:36;;;;;;;8.30;7.60;;;;;;;23.92;53.52;98611.88;5110787;28;20211;-72
2022/05/10 09:21:09;;;;;;;7.13;6.43;;;;;;;23.85;55.71;98610.88;5111438;28;20221;-73
2022/05/10 09:23:42;;;;;;;8.07;7.13;;;;;;;23.90;54.81;98618.47;5113187;28;20206;-72
2022/05/10 09:26:12;;;;;;;7.50;6.90;;;;;;;24.03;56.67;98616.03;5110527;28;20279;-73
2022/05/10 09:28:46;;;;;;;7.63;6.93;;;;;;;24.04;55.53;98609.59;5109392;28;20742;-74
2022/05/10 09:36:55;;;;;;;7.90;7.03;;;;;;;24.24;55.28;98608.09;5101861;28;20248;-69
2022/05/10 09:39:32;;;;;;;7.40;6.60;;;;;;;24.29;53.26;98609.25;5112041;28;20221;-70
2022/05/10 09:41:59;;;;;;;6.27;5.70;;;;;;;24.32;53.60;98608.06;5111411;28;20229;-70
2022/05/10 09:44:29;;;;;;;6.50;6.00;;;;;;;24.39;51.88;98598.19;5108898;28;20257;-69
2022/05/10 09:47:12;;;;;;;6.73;6.03;;;;;;;24.48;49.60;98602.50;5111824;28;20216;-70
2022/05/10 09:49:40;;;;;;;5.93;5.30;;;;;;;24.43;48.55;98594.94;5110105;28;20218;-69
2022/05/10 09:52:16;;;;;;;5.53;5.03;;;;;;;24.49;47.14;98591.53;5108784;28;20215;-68
2022/05/10 09:54:44;;;;;;;4.90;4.50;;;;;;;24.61;43.73;98592.78;5102141;28;20216;-71
2022/05/10 09:57:25;;;;;;;4.77;4.37;;;;;;;24.65;43.37;98590.56;5111258;28;20690;-69
2022/05/10 09:59:53;;;;;;;5.30;4.87;;;;;;;24.78;45.93;98597.03;5103058;28;20205;-70
2022/05/10 10:02:28;;;;;;;5.43;5.00;;;;;;;25.00;45.37;98581.78;5102308;28;20222;-70
2022/05/10 10:04:55;;;;;;;4.90;4.50;;;;;;;25.10;47.17;98583.16;5101261;28;20210;-72
2022/05/10 10:07:25;;;;;;;5.23;4.83;;;;;;;25.19;46.50;98587.47;5102673;28;20222;-71
2022/05/10 10:09:53;;;;;;;6.17;5.60;;;;;;;25.31;44.69;98585.16;5103964;28;20582;-70
2022/05/10 10:12:31;;;;;;;6.10;5.60;;;;;;;25.37;44.25;98579.81;5101509;28;20210;-71
2022/05/10 10:15:01;;;;;;;6.67;5.97;;;;;;;25.47;45.63;98580.38;5109504;28;20694;-71
2022/05/10 10:17:31;;;;;;;6.03;5.33;;;;;;;25.47;43.10;98577.66;5102083;28;20206;-71
2022/05/10 10:20:04;;;;;;;6.20;5.60;;;;;;;25.57;46.93;98575.53;5102446;28;20217;-72
2022/05/10 10:22:38;;;;;;;6.33;5.73;;;;;;;25.58;43.77;98570.94;5100524;28;20691;-70
2022/05/10 10:25:11;;;;;;;6.53;5.90;;;;;;;25.48;41.55;98570.41;5102647;28;20210;-71
2022/05/10 10:27:43;;;;;;;5.70;5.20;;;;;;;25.44;41.13;98569.94;5101479;28;20230;-72
2022/05/10 10:30:23;;;;;;;6.33;5.40;;;;;;;25.67;46.46;98561.69;5110801;28;20675;-72
2022/05/10 10:32:54;;;;;;;6.90;5.70;;;;;;;25.76;44.65;98568.66;5111003;28;20255;-71
2022/05/10 10:35:34;;;;;;;6.07;5.40;;;;;;;26.04;45.28;98567.75;5108161;28;20578;-71
2022/05/10 10:38:11;;;;;;;5.83;5.27;;;;;;;26.39;45.33;98560.59;5102090;28;20215;-72
2022/05/10 10:40:41;;;;;;;5.78;5.28;;;;;;;26.62;43.61;98556.66;5110291;28;20225;-71
2022/05/10 10:43:15;;;;;;;6.00;5.50;;;;;;;26.57;42.87;98564.53;5108093;28;20255;-71
2022/05/10 10:45:45;;;;;;;5.93;5.33;;;;;;;26.49;42.30;98550.25;5110735;28;20210;-71
2022/05/10 10:48:27;;;;;;;7.22;5.75;;;;;;;26.53;41.47;98552.41;5110546;28;20782;-71
2022/05/10 10:50:55;;;;;;;5.43;4.93;;;;;;;26.51;41.46;98546.31;5101421;28;20232;-71
2022/05/10 10:53:24;;;;;;;5.65;5.25;;;;;;;26.59;42.20;98539.94;5101829;28;20222;-71
2022/05/10 10:56:09;;;;;;;6.18;5.68;;;;;;;26.73;43.08;98539.84;5099897;28;20218;-71
2022/05/10 10:58:46;;;;;;;5.50;5.00;;;;;;;26.95;41.82;98533.31;5102444;28;20264;-70
2022/05/10 11:01:31;;;;;;;5.97;5.00;;;;;;;27.06;42.21;98538.19;5109199;28;20218;-71
2022/05/10 11:04:12;;;;;;;6.22;5.40;;;;;;;27.27;41.64;98540.84;5111270;28;20210;-72
2022/05/10 11:06:46;;;;;;;5.53;5.13;;;;;;;27.48;40.99;98541.59;5101031;28;20214;-71
2022/05/10 11:09:33;;;;;;;5.15;4.75;;;;;;;27.69;40.63;98536.00;5098841;28;20238;-72
2022/05/10 11:12:18;;;;;;;5.10;4.70;;;;;;;27.64;38.56;98527.63;5099425;28;20225;-72
2022/05/10 11:14:58;;;;;;;5.15;4.75;;;;;;;27.49;37.54;98523.41;5102956;28;20214;-72
2022/05/10 11:17:38;;;;;;;5.80;5.40;;;;;;;27.30;37.78;98529.56;5101617;28;20221;-71
2022/05/10 11:20:16;;;;;;;5.20;4.70;;;;;;;27.12;38.47;98518.38;5109910;28;20222;-72
2022/05/10 11:22:50;;;;;;;5.72;5.30;;;;;;;27.14;40.55;98516.34;5106437;28;20224;-71
2022/05/10 11:25:46;;;;;;;4.72;4.40;;;;;;;27.11;41.19;98505.88;5110466;28;20965;-73
2022/05/10 11:28:57;;;;;;;5.20;4.78;;;;;;;27.18;40.10;98508.66;5096582;28;20226;-70
2022/05/10 11:31:36;;;;;;;5.25;4.55;;;;;;;27.20;37.38;98517.44;5023847;28;20595;-71
2022/05/10 11:34:20;;;;;;;5.68;4.60;;;;;;;27.21;37.51;98510.94;5028551;28;20252;-71
2022/05/10 11:36:49;;;;;;;5.45;4.97;;;;;;;27.42;39.10;98508.97;5076047;28;20217;-71
2022/05/10 11:39:56;;;;;;;4.90;4.40;;;;;;;27.56;39.00;98507.97;5109629;28;20210;-71
2022/05/10 11:42:29;;;;;;;5.22;4.72;;;;;;;27.72;40.02;98508.44;5106698;28;20214;-71
2022/05/10 11:45:32;;;;;;;4.65;4.35;;;;;;;27.80;37.23;98500.13;5110254;28;20220;-71